Time;durP1;ratioP1;P1;durP2;ratioP2;P2;SDS_P1;SDS_P2;PMS_P1;PMS_P2;Temp;Humidity;BMP_temperature;BMP_pressure;BME280_temperature;BME280_humidity;BME280_pressure;Samples;Min_cycle;Max_cycle;Signal;HPM_P1;HPM_P2
2022/01/25 00:15:27;;;;;;;3.27;3.03;;;2.30;99.90;2.50;103224.00;;;;5029283;28;20229;-61
2022/01/25 00:26:31;;;;;;;0.43;0.43;;;2.60;99.90;2.30;103223.00;;;;5033533;28;20194;-62
2022/01/25 00:29:06;;;;;;;3.07;2.97;;;2.60;99.90;1.70;103205.00;;;;5028658;28;20604;-62
2022/01/25 00:31:34;;;;;;;0.47;0.47;;;2.30;99.90;1.50;103214.00;;;;5029213;28;20219;-61
2022/01/25 00:34:05;;;;;;;0.40;0.40;;;2.00;99.90;1.80;103211.00;;;;5025089;28;20190;-61
2022/01/25 00:36:32;;;;;;;0.40;0.40;;;1.80;99.90;2.00;103227.00;;;;5016459;28;20270;-62
2022/01/25 00:38:58;;;;;;;0.40;0.40;;;1.90;99.90;2.30;103224.00;;;;5032545;28;20183;-62
2022/01/25 00:41:26;;;;;;;5.03;4.63;;;1.90;99.90;2.00;103220.00;;;;5024207;28;20195;-64
2022/01/25 00:43:53;;;;;;;0.50;0.50;;;2.00;99.90;2.10;103214.00;;;;5027156;28;20182;-63
2022/01/25 00:46:22;;;;;;;0.40;0.40;;;1.90;99.90;2.00;103214.00;;;;5020453;28;20278;-62
2022/01/25 00:48:54;;;;;;;0.50;0.50;;;1.90;99.90;1.80;103210.00;;;;5029633;28;20640;-63
2022/01/25 00:54:02;;;;;;;0.50;0.50;;;1.70;99.90;1.60;103160.00;;;;5014210;28;20542;-63
2022/01/25 00:56:33;;;;;;;5.37;5.17;;;1.60;99.90;2.10;103213.00;;;;5030988;28;20193;-63
2022/01/25 00:59:01;;;;;;;6.80;6.40;;;1.80;99.90;1.80;103210.00;;;;5024818;28;20183;-63
2022/01/25 01:01:28;;;;;;;0.50;0.50;;;1.80;99.90;1.80;103194.00;;;;5024856;28;20199;-62
2022/01/25 01:03:57;;;;;;;0.50;0.50;;;1.80;99.90;1.70;103200.00;;;;5027589;28;20187;-62
2022/01/25 01:06:23;;;;;;;0.83;0.83;;;1.70;99.90;1.60;103202.00;;;;5028792;28;20182;-62
2022/01/25 01:08:50;;;;;;;0.50;0.50;;;1.70;99.90;1.70;103197.00;;;;5029491;28;20273;-63
2022/01/25 01:11:24;;;;;;;0.50;0.50;;;1.60;99.90;1.40;103202.00;;;;5028285;28;20183;-63
2022/01/25 01:14:14;;;;;;;0.50;0.50;;;1.60;99.90;1.00;103197.00;;;;5032627;28;20556;-62
2022/01/25 01:30:37;;;;;;;0.60;0.60;;;2.50;99.90;2.70;103220.00;;;;5021990;28;20225;-64
2022/01/25 01:36:30;;;;;;;0.37;0.37;;;2.50;99.90;1.20;103171.00;;;;5021636;28;20563;-63
2022/01/25 01:44:51;;;;;;;0.50;0.50;;;1.80;99.90;1.20;103207.00;;;;5023453;28;20218;-63
2022/01/25 01:47:26;;;;;;;0.90;0.90;;;1.70;99.90;1.20;103207.00;;;;5019885;28;20191;-63
2022/01/25 01:50:02;;;;;;;1.00;0.90;;;1.40;99.90;0.90;103210.00;;;;5013309;28;20186;-63
2022/01/25 01:52:28;;;;;;;0.73;0.73;;;1.30;99.90;1.30;103212.00;;;;5013073;28;20187;-63
2022/01/25 01:54:54;;;;;;;0.40;0.40;;;1.30;99.90;1.20;103208.00;;;;5013960;28;20270;-62
2022/01/25 01:57:20;;;;;;;1.23;1.23;;;1.30;99.90;1.20;103206.00;;;;5013801;28;20254;-63
2022/01/25 01:59:46;;;;;;;0.97;0.97;;;1.30;99.90;1.60;103182.00;;;;5014176;28;20180;-63
2022/01/25 02:02:12;;;;;;;0.40;0.40;;;1.30;99.90;1.60;103197.00;;;;5031341;28;20218;-63
2022/01/25 02:04:40;;;;;;;0.70;0.70;;;1.40;99.90;1.60;103200.00;;;;5025357;28;20557;-63
2022/01/25 02:07:09;;;;;;;1.23;1.23;;;1.40;99.90;1.50;103188.00;;;;5031066;28;20187;-63
2022/01/25 02:09:35;;;;;;;0.40;0.40;;;1.40;99.90;1.50;103190.00;;;;5045082;28;20270;-63
2022/01/25 02:12:04;;;;;;;0.40;0.40;;;1.40;99.90;1.60;103198.00;;;;5021461;28;20910;-63
2022/01/25 02:14:32;;;;;;;0.40;0.40;;;1.40;99.90;1.70;103200.00;;;;5021634;28;20195;-63
2022/01/25 02:17:24;;;;;;;0.40;0.40;;;1.50;99.90;1.60;103199.00;;;;5027176;28;20191;-63
2022/01/25 02:22:34;;;;;;;2.57;2.50;;;1.50;99.90;1.30;103188.00;;;;5030813;28;20225;-63
2022/01/25 02:25:01;;;;;;;0.40;0.40;;;1.40;99.90;1.10;103192.00;;;;5012657;28;20179;-63
2022/01/25 02:27:27;;;;;;;0.40;0.40;;;1.30;99.90;1.40;103202.00;;;;5019452;28;20190;-64
2022/01/25 02:29:53;;;;;;;0.50;0.50;;;1.30;99.90;1.70;103200.00;;;;5020006;28;20650;-63
2022/01/25 02:32:19;;;;;;;0.43;0.43;;;1.40;99.90;0.80;103202.00;;;;5041791;28;20252;-63
2022/01/25 02:34:45;;;;;;;5.13;4.67;;;1.30;99.90;0.60;103204.00;;;;5027792;28;21174;-63
2022/01/25 02:37:20;;;;;;;0.40;0.40;;;1.10;99.90;1.20;103211.00;;;;5011784;28;20257;-63
2022/01/25 02:39:46;;;;;;;0.50;0.50;;;1.20;99.90;1.20;103211.00;;;;5025181;28;20183;-63
2022/01/25 02:42:15;;;;;;;0.40;0.40;;;1.30;99.90;1.20;103212.00;;;;5022830;28;20571;-63
2022/01/25 02:44:45;;;;;;;0.80;0.80;;;1.30;99.90;1.40;103205.00;;;;5015970;28;20198;-64
2022/01/25 02:49:57;;;;;;;0.77;0.77;;;1.50;99.90;1.30;103210.00;;;;5013179;28;20205;-63
2022/01/25 02:52:23;;;;;;;0.40;0.40;;;1.50;99.90;1.70;103198.00;;;;5012700;28;20636;-63
2022/01/25 02:54:53;;;;;;;0.40;0.40;;;1.50;99.90;1.70;103209.00;;;;5030602;28;20179;-64
2022/01/25 02:57:22;;;;;;;0.40;0.40;;;1.50;99.90;2.00;103210.00;;;;5024581;28;20218;-63
2022/01/25 02:59:48;;;;;;;1.60;1.60;;;1.60;99.90;2.00;103201.00;;;;5023176;28;20182;-63
2022/01/25 03:02:18;;;;;;;0.70;0.70;;;1.90;99.90;2.00;103210.00;;;;5023971;28;20200;-63
2022/01/25 03:04:49;;;;;;;0.40;0.40;;;1.80;99.90;1.80;103191.00;;;;5025830;28;20230;-63
2022/01/25 03:07:20;;;;;;;0.40;0.40;;;1.70;99.90;1.80;103207.00;;;;5012870;28;20257;-63
2022/01/25 03:09:46;;;;;;;0.50;0.50;;;1.60;99.90;1.80;103182.00;;;;5012850;28;20642;-63
2022/01/25 03:12:17;;;;;;;0.50;0.50;;;1.60;99.90;2.00;103161.00;;;;5012640;28;20207;-63
2022/01/25 03:15:00;;;;;;;0.50;0.50;;;1.70;99.90;1.80;103195.00;;;;5030721;28;20646;-63
2022/01/25 03:17:29;;;;;;;0.50;0.50;;;1.60;99.90;1.70;103161.00;;;;5031772;28;20654;-63
2022/01/25 03:20:04;;;;;;;0.50;0.50;;;1.60;99.90;1.60;103195.00;;;;5033781;28;20274;-63
2022/01/25 03:23:18;;;;;;;0.40;0.40;;;1.50;99.90;1.70;103143.00;;;;5016137;28;20195;-63
2022/01/25 03:25:16;;;;;;;0.57;0.57;;;1.50;99.90;1.60;103179.00;;;;5022607;28;20293;-63
2022/01/25 03:27:45;;;;;;;0.40;0.40;;;1.50;99.90;1.50;103172.00;;;;5018509;28;20706;-63
2022/01/25 03:30:11;;;;;;;0.50;0.50;;;1.40;99.90;1.90;103181.00;;;;5016027;28;20187;-63
2022/01/25 03:32:37;;;;;;;0.50;0.50;;;1.60;99.90;1.70;103179.00;;;;5028730;28;20217;-63
2022/01/25 03:35:03;;;;;;;1.70;1.70;;;1.60;99.90;1.70;103175.00;;;;5022687;28;20187;-63
2022/01/25 03:37:34;;;;;;;0.57;0.57;;;1.50;99.90;1.70;103140.00;;;;5021726;28;20837;-64
2022/01/25 03:40:00;;;;;;;4.13;4.00;;;1.60;99.90;1.70;103168.00;;;;5029435;28;20180;-63
2022/01/25 03:42:29;;;;;;;0.50;0.50;;;1.60;99.90;1.90;103191.00;;;;5014246;28;20250;-63
2022/01/25 03:44:56;;;;;;;0.50;0.50;;;1.60;99.90;2.00;103176.00;;;;5019064;28;20209;-64
2022/01/25 03:47:41;;;;;;;0.50;0.50;;;1.70;99.90;2.00;103115.00;;;;5025421;28;20191;-64
2022/01/25 03:50:13;;;;;;;0.40;0.40;;;1.80;99.90;1.80;103190.00;;;;5028972;28;20217;-63
2022/01/25 03:52:41;;;;;;;0.73;0.73;;;1.70;99.90;1.20;103190.00;;;;5014199;28;20187;-65
2022/01/25 03:55:10;;;;;;;0.50;0.50;;;1.70;99.90;1.30;103176.00;;;;5014071;28;20188;-63
2022/01/25 03:57:41;;;;;;;2.90;2.80;;;1.50;99.90;1.80;103179.00;;;;5013511;28;20219;-63
2022/01/25 04:00:32;;;;;;;4.20;4.00;;;1.60;99.90;2.00;103144.00;;;;5014763;28;20206;-63
2022/01/25 04:05:37;;;;;;;0.50;0.50;;;1.60;99.90;1.70;103188.00;;;;5016134;28;20199;-64
2022/01/25 04:08:04;;;;;;;0.90;0.90;;;1.50;99.90;1.30;103189.00;;;;5030526;28;20175;-64
2022/01/25 04:10:34;;;;;;;2.47;2.30;;;1.50;99.90;1.50;103175.00;;;;5013231;28;20191;-63
2022/01/25 04:13:04;;;;;;;0.40;0.40;;;1.50;99.90;1.80;103194.00;;;;5047039;28;20206;-63
2022/01/25 04:15:33;;;;;;;0.50;0.50;;;1.60;99.90;1.80;103184.00;;;;5048965;28;20891;-63
2022/01/25 04:20:41;;;;;;;2.07;1.97;;;1.70;99.90;1.70;103187.00;;;;5030006;28;20195;-63
2022/01/25 04:25:54;;;;;;;0.97;0.97;;;1.60;99.90;1.20;103167.00;;;;5020865;28;20628;-63
2022/01/25 04:28:22;;;;;;;0.60;0.60;;;1.40;99.90;1.50;103164.00;;;;5029234;28;20191;-63
2022/01/25 04:30:51;;;;;;;0.40;0.40;;;1.50;99.90;1.70;103180.00;;;;5014190;28;20191;-63
2022/01/25 04:33:20;;;;;;;4.17;1.23;;;1.60;99.90;1.70;103168.00;;;;5015618;28;20191;-63
2022/01/25 04:35:59;;;;;;;2.90;2.70;;;1.60;99.90;1.70;103159.00;;;;5024055;28;20669;-63
2022/01/25 04:49:31;;;;;;;0.40;0.40;;;2.10;99.90;2.00;103152.00;;;;5030093;28;20206;-63
2022/01/25 04:52:10;;;;;;;1.73;1.60;;;2.00;99.90;2.00;103168.00;;;;5022104;28;20191;-64
2022/01/25 04:54:56;;;;;;;0.80;0.80;;;2.10;99.90;2.30;103165.00;;;;5014211;28;20232;-63
2022/01/25 05:00:17;;;;;;;1.13;1.13;;;2.20;99.90;2.50;103170.00;;;;5020630;28;20187;-64
2022/01/25 05:03:06;;;;;;;2.83;2.73;;;2.20;99.90;2.30;103156.00;;;;5023543;28;20558;-64
2022/01/25 05:05:37;;;;;;;1.80;1.70;;;2.30;99.90;2.30;103174.00;;;;5033110;28;20198;-64
2022/01/25 05:10:58;;;;;;;1.07;1.07;;;2.20;99.90;1.80;103163.00;;;;5033833;28;20190;-63
2022/01/25 05:16:07;;;;;;;0.50;0.50;;;2.10;99.90;2.80;103104.00;;;;5032270;28;20199;-63
2022/01/25 05:18:43;;;;;;;0.97;0.97;;;2.40;99.90;2.30;103158.00;;;;5039397;28;20222;-64
2022/01/25 05:23:54;;;;;;;0.67;0.67;;;2.30;99.90;2.40;103116.00;;;;5031966;28;20194;-63
2022/01/25 05:26:23;;;;;;;1.67;1.57;;;2.40;99.90;2.30;103147.00;;;;5034393;28;20281;-63
2022/01/25 05:28:52;;;;;;;1.13;1.13;;;2.40;99.90;1.90;103131.00;;;;5032286;28;20186;-63
2022/01/25 05:31:18;;;;;;;1.07;1.07;;;2.20;99.90;2.20;103144.00;;;;5021785;28;20199;-63
2022/01/25 05:33:44;;;;;;;4.23;4.03;;;2.30;99.90;2.90;103087.00;;;;5029912;28;20179;-64
2022/01/25 05:36:10;;;;;;;0.63;0.63;;;2.60;99.90;2.90;103153.00;;;;5029348;28;20187;-64
2022/01/25 05:38:36;;;;;;;0.83;0.83;;;2.70;99.90;2.80;103151.00;;;;5032067;28;20171;-63
2022/01/25 05:41:02;;;;;;;1.07;0.90;;;2.70;99.90;2.80;103140.00;;;;5031711;28;20224;-63
2022/01/25 05:46:11;;;;;;;0.40;0.40;;;2.60;99.90;2.70;103094.00;;;;5022534;28;20196;-64
2022/01/25 05:48:37;;;;;;;0.97;0.97;;;2.80;99.90;3.00;103152.00;;;;5030387;28;20186;-63
2022/01/25 05:51:06;;;;;;;0.40;0.40;;;2.70;99.90;2.80;103154.00;;;;5030859;28;20228;-64
2022/01/25 05:53:32;;;;;;;1.10;1.10;;;2.90;99.90;2.70;103136.00;;;;5014012;28;20222;-63
2022/01/25 05:55:58;;;;;;;1.90;1.57;;;2.90;99.90;3.10;103165.00;;;;5023737;28;20209;-63
2022/01/25 05:58:25;;;;;;;0.40;0.40;;;2.90;99.90;3.30;103159.00;;;;5030203;28;20628;-64
2022/01/25 06:00:51;;;;;;;1.13;1.13;;;3.00;99.90;3.40;103137.00;;;;5014228;28;20187;-64
2022/01/25 06:03:17;;;;;;;1.40;1.40;;;3.20;99.90;3.20;103135.00;;;;5027974;28;20210;-64
2022/01/25 06:05:43;;;;;;;0.70;0.70;;;3.10;99.90;3.40;103147.00;;;;5026818;28;20233;-64
2022/01/25 06:08:12;;;;;;;1.57;1.50;;;3.20;99.90;3.50;103113.00;;;;5025169;28;20262;-64
2022/01/25 06:10:37;;;;;;;0.47;0.47;;;3.20;99.90;3.20;103127.00;;;;5035524;28;20184;-64
2022/01/25 06:13:05;;;;;;;0.50;0.50;;;3.10;99.90;3.20;103134.00;;;;5027743;28;20633;-64
2022/01/25 06:15:32;;;;;;;1.03;1.03;;;3.10;99.90;3.30;103084.00;;;;5032765;28;20186;-64
2022/01/25 06:17:57;;;;;;;0.73;0.73;;;3.10;99.90;3.10;103147.00;;;;5024409;28;20187;-64
2022/01/25 06:20:23;;;;;;;0.40;0.40;;;3.00;99.90;3.40;103082.00;;;;5032616;28;20550;-64
2022/01/25 06:22:51;;;;;;;2.80;2.70;;;3.10;99.90;3.60;103151.00;;;;5016777;28;20565;-63
2022/01/25 06:25:17;;;;;;;0.40;0.40;;;3.20;99.90;3.20;103104.00;;;;5012769;28;20183;-64
2022/01/25 06:28:01;;;;;;;0.53;0.53;;;3.30;99.90;3.10;103147.00;;;;5019351;28;20665;-64
2022/01/25 06:30:47;;;;;;;0.80;0.80;;;3.20;99.90;3.20;103158.00;;;;5018931;28;20191;-63
2022/01/25 06:33:25;;;;;;;0.50;0.50;;;3.10;99.90;3.30;103154.00;;;;5031539;28;20580;-63
2022/01/25 06:35:59;;;;;;;0.93;0.93;;;3.10;99.90;3.30;103152.00;;;;5019290;28;20257;-63
2022/01/25 06:38:27;;;;;;;0.50;0.50;;;3.20;99.90;3.60;103153.00;;;;5012884;28;20269;-63
2022/01/25 06:40:53;;;;;;;0.50;0.50;;;3.20;99.90;3.70;103122.00;;;;5031652;28;20269;-64
2022/01/25 06:43:22;;;;;;;0.50;0.50;;;3.40;99.90;3.50;103161.00;;;;5023940;28;20211;-63
2022/01/25 06:45:55;;;;;;;0.50;0.50;;;3.30;99.90;3.50;103106.00;;;;5012824;28;20205;-64
2022/01/25 06:48:22;;;;;;;0.70;0.70;;;3.30;99.90;3.10;103163.00;;;;5011626;28;20532;-63
2022/01/25 06:50:54;;;;;;;0.40;0.40;;;3.20;99.90;3.00;103153.00;;;;5017717;28;20274;-63
2022/01/25 06:53:20;;;;;;;0.50;0.50;;;3.00;99.90;2.80;103158.00;;;;5028961;28;20568;-64
2022/01/25 06:55:46;;;;;;;1.53;1.43;;;2.90;99.90;3.20;103161.00;;;;5030814;28;20583;-64
2022/01/25 06:58:12;;;;;;;1.20;1.20;;;3.00;99.90;3.40;103175.00;;;;5035143;28;20187;-64
2022/01/25 07:00:38;;;;;;;0.40;0.40;;;3.20;99.90;3.20;103144.00;;;;5033701;28;20634;-64
2022/01/25 07:03:16;;;;;;;1.53;1.53;;;3.10;99.90;3.10;103167.00;;;;5033463;28;20209;-64
2022/01/25 07:05:48;;;;;;;1.60;1.03;;;3.10;99.90;3.50;103160.00;;;;5035312;28;20198;-63
2022/01/25 07:08:14;;;;;;;0.50;0.50;;;3.20;99.90;3.50;103173.00;;;;5034827;28;20186;-63
2022/01/25 07:10:44;;;;;;;3.53;2.40;;;3.30;99.90;3.60;103152.00;;;;5016353;28;20219;-63
2022/01/25 07:13:09;;;;;;;0.77;0.77;;;3.40;99.90;3.30;103173.00;;;;5015200;28;20201;-64
2022/01/25 07:15:38;;;;;;;2.60;2.50;;;3.30;99.90;3.60;103171.00;;;;5022502;28;20182;-64
2022/01/25 07:18:04;;;;;;;4.27;3.90;;;3.40;99.90;3.80;103152.00;;;;5038103;28;20269;-64
2022/01/25 07:20:32;;;;;;;4.73;4.33;;;3.60;99.90;3.40;103135.00;;;;5042375;28;20633;-64
2022/01/25 07:22:58;;;;;;;0.63;0.63;;;3.60;99.90;3.40;103162.00;;;;5030933;28;20662;-64
2022/01/25 07:25:25;;;;;;;5.23;4.70;;;3.50;99.90;2.70;103096.00;;;;5031369;28;20191;-63
2022/01/25 07:27:52;;;;;;;0.60;0.60;;;3.20;99.90;2.90;103101.00;;;;5034510;28;20274;-63
2022/01/25 07:31:06;;;;;;;0.40;0.40;;;3.20;99.90;3.10;103168.00;;;;5030823;28;20183;-63
2022/01/25 07:33:32;;;;;;;0.97;0.97;;;3.20;99.90;3.40;103165.00;;;;5010807;28;20317;-63
2022/01/25 07:36:02;;;;;;;0.73;0.73;;;3.30;99.90;3.60;103169.00;;;;5022040;28;20207;-63
2022/01/25 07:38:27;;;;;;;1.33;1.33;;;3.40;99.90;3.70;103152.00;;;;5038466;28;20186;-63
2022/01/25 07:40:53;;;;;;;2.70;2.50;;;3.50;99.90;3.50;103168.00;;;;5035496;28;20190;-63
2022/01/25 07:43:19;;;;;;;2.50;2.30;;;3.60;99.90;4.00;103165.00;;;;5019022;28;20215;-63
2022/01/25 07:45:51;;;;;;;0.77;0.77;;;3.70;99.90;3.90;103178.00;;;;5029753;28;20189;-63
2022/01/25 07:48:24;;;;;;;0.50;0.50;;;3.70;99.90;3.40;103172.00;;;;5014639;28;20195;-63
2022/01/25 07:50:53;;;;;;;0.93;0.83;;;3.70;99.90;3.20;103119.00;;;;5015054;28;20546;-63
2022/01/25 07:53:19;;;;;;;3.70;3.30;;;3.50;99.90;3.50;103183.00;;;;5032222;28;20202;-63
2022/01/25 07:55:48;;;;;;;0.47;0.47;;;3.50;99.90;3.70;103188.00;;;;5028745;28;20175;-63
2022/01/25 07:58:14;;;;;;;0.60;0.60;;;3.80;99.90;3.40;103181.00;;;;5024506;28;20183;-63
2022/01/25 08:00:52;;;;;;;1.83;1.63;;;3.70;99.90;3.90;103148.00;;;;5024925;28;20183;-63
2022/01/25 08:03:19;;;;;;;0.50;0.50;;;3.70;99.90;3.70;103178.00;;;;5017913;28;20276;-63
2022/01/25 08:05:45;;;;;;;0.50;0.50;;;3.90;99.90;4.10;103184.00;;;;5035981;28;20646;-63
2022/01/25 08:08:12;;;;;;;0.50;0.50;;;4.00;99.90;4.00;103183.00;;;;5028033;28;20189;-63
2022/01/25 08:10:38;;;;;;;3.33;3.10;;;4.00;99.90;4.30;103172.00;;;;5020148;28;20187;-63
2022/01/25 08:13:04;;;;;;;2.37;2.17;;;4.00;99.90;3.10;103179.00;;;;5029373;28;20213;-63
2022/01/25 08:15:30;;;;;;;0.50;0.50;;;3.80;99.90;3.60;103187.00;;;;5027794;28;20178;-63
2022/01/25 08:17:56;;;;;;;2.00;1.90;;;3.70;99.90;3.30;103176.00;;;;5032204;28;20186;-62
2022/01/25 08:20:22;;;;;;;4.97;4.33;;;3.60;99.90;4.20;103175.00;;;;5033740;28;20183;-63
2022/01/25 08:22:53;;;;;;;0.40;0.40;;;3.90;99.90;4.30;103192.00;;;;5033653;28;20341;-63
2022/01/25 08:25:20;;;;;;;7.50;7.10;;;4.10;99.90;4.30;103186.00;;;;5027099;28;20546;-63
2022/01/25 08:27:51;;;;;;;0.40;0.40;;;4.20;99.90;4.70;103189.00;;;;5029255;28;20229;-63
2022/01/25 08:30:23;;;;;;;0.53;0.53;;;4.30;99.90;4.70;103186.00;;;;5014714;28;20187;-63
2022/01/25 08:32:48;;;;;;;0.60;0.60;;;4.40;99.90;4.50;103191.00;;;;5033372;28;20247;-63
2022/01/25 08:35:23;;;;;;;0.60;0.60;;;4.30;99.90;3.90;103188.00;;;;5025596;28;20647;-63
2022/01/25 08:37:52;;;;;;;1.37;1.37;;;4.20;99.90;4.10;103191.00;;;;5012784;28;20190;-63
2022/01/25 08:40:20;;;;;;;0.83;0.83;;;4.20;99.90;4.40;103188.00;;;;5011814;28;20188;-63
2022/01/25 08:42:49;;;;;;;0.50;0.50;;;4.30;99.90;4.80;103180.00;;;;5025881;28;20222;-63
2022/01/25 08:45:14;;;;;;;1.83;1.83;;;4.40;99.90;5.00;103197.00;;;;5023563;28;20184;-63
2022/01/25 08:47:43;;;;;;;1.23;1.23;;;4.60;99.90;4.60;103196.00;;;;5029331;28;20183;-63
2022/01/25 08:50:09;;;;;;;2.23;1.83;;;4.50;99.90;5.00;103194.00;;;;5020669;28;20197;-63
2022/01/25 08:52:37;;;;;;;0.77;0.77;;;4.60;99.90;5.10;103187.00;;;;5027932;28;20183;-63
2022/01/25 08:55:05;;;;;;;0.50;0.50;;;4.80;99.90;5.10;103185.00;;;;5013654;28;20191;-62
2022/01/25 08:57:33;;;;;;;2.07;1.97;;;4.80;99.90;4.00;103180.00;;;;5013855;28;20632;-62
2022/01/25 09:00:00;;;;;;;0.60;0.60;;;4.40;99.90;4.70;103189.00;;;;5012415;28;20188;-63
2022/01/25 09:02:26;;;;;;;1.50;1.50;;;4.50;99.90;4.50;103178.00;;;;5031861;28;20214;-63
2022/01/25 09:04:53;;;;;;;0.50;0.50;;;4.60;99.90;4.30;103186.00;;;;5035062;28;20175;-63
2022/01/25 09:07:36;;;;;;;4.73;4.40;;;4.50;99.90;5.40;103189.00;;;;5031389;28;20185;-63
2022/01/25 09:10:04;;;;;;;2.87;2.50;;;4.90;99.90;5.30;103192.00;;;;5032402;28;20229;-63
2022/01/25 09:12:33;;;;;;;1.47;1.47;;;5.10;99.90;5.50;103178.00;;;;5032461;28;20708;-63
2022/01/25 09:14:58;;;;;;;0.50;0.50;;;5.20;99.90;4.90;103180.00;;;;5031432;28;20196;-63
2022/01/25 09:17:24;;;;;;;0.50;0.50;;;5.00;99.90;5.40;103180.00;;;;5011300;28;20250;-63
2022/01/25 09:19:50;;;;;;;0.50;0.50;;;5.00;99.90;5.10;103179.00;;;;5004529;28;20185;-63
2022/01/25 09:22:19;;;;;;;2.00;1.93;;;5.10;99.90;4.90;103185.00;;;;5013752;28;20576;-63
2022/01/25 09:24:45;;;;;;;2.70;2.20;;;4.90;99.90;5.60;103197.00;;;;5013836;28;20201;-63
2022/01/25 09:27:11;;;;;;;0.57;0.57;;;5.10;99.90;5.00;103190.00;;;;5014543;28;20198;-63
2022/01/25 09:29:38;;;;;;;0.40;0.40;;;5.10;99.90;3.90;103194.00;;;;5022514;28;20191;-63
2022/01/25 09:32:04;;;;;;;0.40;0.40;;;4.50;99.90;4.70;103187.00;;;;5036679;28;20652;-64
2022/01/25 09:34:38;;;;;;;0.40;0.40;;;4.50;99.90;4.70;103190.00;;;;5032049;28;20270;-63
2022/01/25 09:37:13;;;;;;;0.40;0.40;;;4.50;99.90;4.70;103194.00;;;;5031901;28;20647;-63
2022/01/25 09:39:39;;;;;;;0.40;0.40;;;4.50;99.90;5.50;103200.00;;;;5014064;28;20592;-63
2022/01/25 09:42:09;;;;;;;0.70;0.70;;;4.90;99.90;5.10;103203.00;;;;5027792;28;20240;-63
2022/01/25 09:44:43;;;;;;;1.20;1.13;;;4.90;99.90;4.90;103201.00;;;;5028505;28;20185;-63
2022/01/25 09:47:11;;;;;;;1.17;1.17;;;4.80;99.90;5.40;103211.00;;;;5013130;28;20189;-62
2022/01/25 09:49:38;;;;;;;0.77;0.77;;;5.00;99.90;5.40;103211.00;;;;5013624;28;20192;-62
2022/01/25 09:52:09;;;;;;;2.23;2.03;;;5.10;99.90;5.50;103164.00;;;;5027727;28;20207;-64
2022/01/25 09:54:39;;;;;;;0.53;0.53;;;5.10;99.90;4.70;103202.00;;;;5012786;28;20195;-63
2022/01/25 09:57:16;;;;;;;1.83;1.77;;;5.10;99.90;3.40;103195.00;;;;5019889;28;20195;-63
2022/01/25 09:59:42;;;;;;;0.40;0.40;;;4.40;99.90;4.00;103198.00;;;;5022080;28;20183;-63
2022/01/25 10:02:08;;;;;;;1.50;1.40;;;4.20;99.90;5.00;103203.00;;;;5023605;28;20213;-63
2022/01/25 10:04:39;;;;;;;0.30;0.30;;;4.60;99.90;5.30;103218.00;;;;5030470;28;20204;-63
2022/01/25 10:07:05;;;;;;;1.33;1.33;;;4.90;99.90;5.30;103148.00;;;;5027075;28;20250;-63
2022/01/25 10:09:32;;;;;;;0.43;0.43;;;5.10;99.90;5.30;103209.00;;;;5030641;28;20196;-63
2022/01/25 10:12:20;;;;;;;1.90;1.80;;;5.10;99.90;4.90;103190.00;;;;5029399;28;20220;-63
2022/01/25 10:15:00;;;;;;;3.27;3.07;;;5.10;99.90;4.80;103208.00;;;;5026186;28;20186;-63
2022/01/25 10:17:37;;;;;;;0.43;0.43;;;5.10;99.90;5.30;103218.00;;;;5028211;28;20191;-63
2022/01/25 10:20:04;;;;;;;3.17;2.63;;;5.10;99.90;4.90;103207.00;;;;5014121;28;20203;-63
2022/01/25 10:33:33;;;;;;;6.43;3.20;;;4.30;99.90;4.10;103223.00;;;;5043374;28;20363;-64
2022/01/25 10:36:11;;;;;;;3.33;3.03;;;4.30;99.90;4.30;103232.00;;;;5024522;28;20664;-63
2022/01/25 10:38:42;;;;;;;6.80;4.27;;;4.50;99.90;4.90;103227.00;;;;5019637;28;20194;-63
2022/01/25 10:41:24;;;;;;;4.70;4.30;;;4.70;99.90;5.00;103219.00;;;;4997866;28;20241;-64
2022/01/25 10:43:54;;;;;;;1.63;1.53;;;4.80;99.90;5.60;103178.00;;;;5013769;28;20797;-64
2022/01/25 10:46:27;;;;;;;18.53;8.40;;;5.00;99.90;4.30;103212.00;;;;5019396;28;20279;-63
2022/01/25 10:49:02;;;;;;;7.53;3.87;;;4.90;99.90;4.00;103208.00;;;;5015937;28;20180;-62
2022/01/25 10:51:34;;;;;;;0.30;0.30;;;4.60;99.90;4.00;103155.00;;;;5025073;28;20286;-65
2022/01/25 10:54:23;;;;;;;0.57;0.57;;;4.40;99.90;5.00;103216.00;;;;5027133;28;20211;-64
2022/01/25 10:57:02;;;;;;;0.93;0.93;;;4.70;99.90;4.80;103211.00;;;;5015323;28;20279;-64
2022/01/25 10:59:33;;;;;;;0.70;0.70;;;4.80;99.90;5.10;103208.00;;;;5025678;28;20194;-64
2022/01/25 11:02:08;;;;;;;1.17;1.17;;;4.90;99.90;4.40;103210.00;;;;5022509;28;20203;-64
2022/01/25 11:04:38;;;;;;;4.17;2.83;;;5.00;99.90;4.60;103209.00;;;;5028702;28;20206;-64
2022/01/25 11:08:01;;;;;;;4.53;2.40;;;4.90;99.90;5.30;103209.00;;;;5028136;28;20179;-64
2022/01/25 11:11:10;;;;;;;0.30;0.30;;;4.90;99.90;4.90;103213.00;;;;5021712;28;20201;-64
2022/01/25 11:16:53;;;;;;;1.17;1.17;;;5.00;99.90;4.70;103208.00;;;;5025074;28;20197;-62
2022/01/25 11:19:21;;;;;;;0.30;0.30;;;5.00;99.90;5.30;103205.00;;;;5028145;28;20270;-64
2022/01/25 11:21:49;;;;;;;0.50;0.50;;;5.20;99.90;4.20;103184.00;;;;5016048;28;20194;-64
2022/01/25 11:24:18;;;;;;;3.93;3.63;;;4.80;99.90;3.70;103208.00;;;;5028223;28;20208;-64
2022/01/25 11:26:48;;;;;;;0.87;0.87;;;4.50;99.90;4.60;103204.00;;;;5027121;28;20195;-64
2022/01/25 11:29:16;;;;;;;4.00;3.70;;;4.60;99.90;4.40;103206.00;;;;5027570;28;20213;-64
2022/01/25 11:32:00;;;;;;;4.90;4.70;;;4.60;99.90;4.90;103205.00;;;;5022586;28;20220;-65
2022/01/25 11:34:28;;;;;;;1.10;1.10;;;4.80;99.90;5.50;103217.00;;;;5045112;28;20192;-64
2022/01/25 11:36:58;;;;;;;4.00;3.63;;;5.10;99.90;4.40;103208.00;;;;5031186;28;20206;-64
2022/01/25 11:39:30;;;;;;;4.00;3.60;;;4.80;99.90;4.80;103210.00;;;;5031130;28;20181;-64
2022/01/25 11:42:23;;;;;;;3.17;1.90;;;4.90;99.90;4.30;103216.00;;;;5046718;28;20204;-64
2022/01/25 11:44:54;;;;;;;14.63;9.53;;;4.80;99.90;4.10;103200.00;;;;5013959;28;20173;-64
2022/01/25 11:47:33;;;;;;;8.73;7.20;;;4.70;99.90;3.80;103159.00;;;;5026321;28;20240;-65
2022/01/25 11:50:05;;;;;;;7.13;2.80;;;4.50;99.90;3.90;103213.00;;;;5033147;28;20212;-64
2022/01/25 11:52:34;;;;;;;1.43;1.37;;;4.40;99.90;4.80;103216.00;;;;5032922;28;20247;-63
2022/01/25 11:55:30;;;;;;;7.23;3.97;;;4.70;99.90;4.80;103207.00;;;;5033784;28;20188;-64
2022/01/25 11:58:28;;;;;;;10.30;4.67;;;4.90;99.90;4.50;103140.00;;;;5033356;28;20189;-63
2022/01/25 12:01:03;;;;;;;8.10;3.40;;;4.70;99.90;5.10;103199.00;;;;5032211;28;20204;-63
2022/01/25 12:03:51;;;;;;;5.60;3.80;;;5.00;99.90;4.80;103205.00;;;;5033918;28;20216;-63
2022/01/25 12:06:28;;;;;;;5.03;4.10;;;5.00;99.90;3.60;103196.00;;;;5029616;28;20633;-63
2022/01/25 12:11:48;;;;;;;7.47;6.63;;;4.50;99.90;4.20;103201.00;;;;5019871;28;20700;-64
2022/01/25 12:14:30;;;;;;;2.43;2.33;;;4.60;99.90;4.70;103161.00;;;;5033842;28;20184;-63
2022/01/25 12:17:04;;;;;;;3.80;3.60;;;4.80;99.90;4.40;103181.00;;;;5018286;28;20188;-63
2022/01/25 12:19:50;;;;;;;6.97;6.30;;;4.90;99.90;5.40;103199.00;;;;5033436;28;20183;-64
2022/01/25 12:22:40;;;;;;;1.77;1.70;;;5.20;99.90;4.50;103182.00;;;;5033278;28;20196;-64
2022/01/25 12:25:33;;;;;;;0.73;0.73;;;5.00;99.90;4.80;103140.00;;;;5040745;28;20535;-64
2022/01/25 12:28:07;;;;;;;2.67;2.10;;;5.00;99.90;5.40;103182.00;;;;5033540;28;20251;-64
2022/01/25 12:30:42;;;;;;;0.30;0.30;;;5.30;99.90;4.70;103176.00;;;;5033622;28;20190;-63
2022/01/25 12:33:29;;;;;;;3.47;3.17;;;5.10;99.90;4.80;103132.00;;;;5031572;28;20227;-64
2022/01/25 12:36:16;;;;;;;4.77;3.10;;;5.20;99.90;5.60;103181.00;;;;5031002;28;20232;-63
2022/01/25 12:38:52;;;;;;;0.90;0.90;;;5.30;99.90;6.20;103186.00;;;;5020637;28;20215;-63
2022/01/25 12:41:44;;;;;;;0.73;0.73;;;5.80;99.90;5.50;103166.00;;;;5032474;28;20593;-63
2022/01/25 12:44:27;;;;;;;0.80;0.80;;;5.80;99.90;4.90;103166.00;;;;5031730;28;20233;-63
2022/01/25 12:46:55;;;;;;;5.00;4.57;;;5.30;99.90;4.70;103157.00;;;;5022351;28;20192;-63
2022/01/25 12:49:59;;;;;;;4.00;3.23;;;5.10;99.90;4.60;103161.00;;;;5026365;28;20191;-63
2022/01/25 12:52:31;;;;;;;3.40;2.53;;;5.00;99.90;5.20;103167.00;;;;5008677;28;20263;-64
2022/01/25 12:54:59;;;;;;;1.33;1.27;;;5.10;99.90;5.60;103166.00;;;;5026744;28;20720;-64
2022/01/25 12:57:27;;;;;;;1.30;1.30;;;5.50;99.90;5.30;103162.00;;;;5028404;28;20181;-64
2022/01/25 12:59:56;;;;;;;0.37;0.37;;;5.50;99.90;5.90;103166.00;;;;5032135;28;20637;-65
2022/01/25 13:02:27;;;;;;;5.87;4.33;;;5.70;99.90;5.10;103153.00;;;;5022193;28;20232;-63
2022/01/25 13:04:55;;;;;;;15.77;7.23;;;5.60;99.90;4.20;103136.00;;;;5019701;28;20592;-64